Wrangell Airport
PAWG : now visible

Airfield :











YOU CAN JOIN US ON...

 
LOGIN :

Register | Disclaimer

   EN    FR    IT 

 









Legend :    VFR   Marginal VFR   IFR   Intensive IFR   Very Intensive IFR
Visi :
Ceiling :
>= 8 km
>= 3000ft
5 to 8 km
1000 to 3000 ft
1500m to 5 km
500 to 1000 ft
800 to 1500m
200 to 500 ft
< 800m
< 200 ft
Symbols :   Thunderstorms  Fog  Heavy snow  Heavy precipitations  Wind > 20 kt






- Airport Elevation : 49 ft
- IATA code : WRG


PAWG - Wrangell

CURRENT METAR :
  • 291656Z 09006KT 10SM OVC032 12/09 A2999

EXPIRED METARs :
  • 291556Z 09004KT 10SM OVC030 11/10 A3000
  • 291532Z 09006KT 10SM OVC030 11/09 A3000 RMK AO2
  • 291456Z 09004KT 10SM OVC029 11/10 A3000 RMK AO2 SLP159 T01060100 51002

TAF PAWG
Valid from the 29 at 18:00 until the 30 at 18:00 UTC


291724Z 2918/3018 12008KT P6SM VCSH OVC035
FM292100 12008KT P6SM BKN035 AMD LTD TO CLD VIS AND WIND 3006/3015
PAZA FIR / North America



MET'MAP, your aeronautical weather chart ! - Copyright ORBIFLY December 2007 - Disclaimer

ORBIFLY MET'MAP TEAM :

Programming & Development : Alexandra Zaïnal
Concept & original design : Baudouin d'Aumeries
Assistance for programming : Marc-Olivier Méhu
Technical & hardware support : Manuel Goepfert

Contact : metmap@orbifly.com




SOURCES & CREDITS :

   NOAA       Earth
Advisory